Time,TemperatureF,DewpointF,PressureIn,WindDirection,WindDirectionDegrees,WindSpeedMPH,WindSpeedGustMPH,Humidity,HourlyPrecipIn,Conditions,Clouds,dailyrainin,SoftwareType,DateUTC
2013-04-05 00:02:00,44.0,29.0,29.99,NE,51,1.0,3.0,56,0.00,,,0.00,,2013-04-05 05:02:00,
2013-04-05 00:22:00,43.0,29.0,30.00,NE,53,1.0,4.0,57,0.00,,,0.00,,2013-04-05 05:22:00,
2013-04-05 00:32:00,42.0,30.0,29.99,NE,53,0.0,2.0,61,0.00,,,0.00,,2013-04-05 05:32:00,
2013-04-05 00:42:00,42.0,30.0,29.99,NE,53,0.0,2.0,61,0.00,,,0.00,,2013-04-05 05:42:00,
2013-04-05 00:52:00,41.0,29.0,29.99,ENE,57,1.0,3.0,63,0.00,,,0.00,,2013-04-05 05:52:00,
2013-04-05 01:02:00,41.0,29.0,29.99,ENE,57,1.0,3.0,63,0.00,,,0.00,,2013-04-05 06:02:00,
2013-04-05 01:12:00,41.0,29.0,29.99,ENE,57,1.0,3.0,63,0.00,,,0.00,,2013-04-05 06:12:00,
2013-04-05 01:22:00,43.0,31.0,29.98,NE,56,1.0,6.0,62,0.00,,,0.00,,2013-04-05 06:22:00,
2013-04-05 01:32:00,43.0,31.0,29.98,NE,56,1.0,6.0,62,0.00,,,0.00,,2013-04-05 06:32:00,
2013-04-05 01:42:00,43.0,31.0,29.98,NE,56,1.0,6.0,62,0.00,,,0.00,,2013-04-05 06:42:00,
2013-04-05 01:52:00,42.0,30.0,29.98,ENE,66,0.0,3.0,63,0.00,,,0.00,,2013-04-05 06:52:00,
2013-04-05 02:02:00,41.0,30.0,29.98,ENE,65,0.0,3.0,65,0.00,,,0.00,,2013-04-05 07:02:00,
2013-04-05 02:12:00,41.0,30.0,29.98,ENE,65,0.0,3.0,65,0.00,,,0.00,,2013-04-05 07:12:00,
2013-04-05 02:22:00,41.0,30.0,29.98,ENE,67,1.0,4.0,65,0.00,,,0.00,,2013-04-05 07:22:00,
2013-04-05 02:32:00,41.0,31.0,29.97,NE,37,1.0,3.0,66,0.00,,,0.00,,2013-04-05 07:32:00,
2013-04-05 02:42:00,41.0,31.0,29.97,NE,37,1.0,3.0,66,0.00,,,0.00,,2013-04-05 07:42:00,
2013-04-05 02:52:00,39.0,29.0,29.96,NNE,16,1.0,3.0,68,0.00,,,0.00,,2013-04-05 07:52:00,
2013-04-05 03:02:00,38.0,29.0,29.96,ENE,68,1.0,4.0,70,0.00,,,0.00,,2013-04-05 08:02:00,
2013-04-05 03:12:00,38.0,29.0,29.96,ENE,68,1.0,4.0,70,0.00,,,0.00,,2013-04-05 08:12:00,
2013-04-05 03:22:00,38.0,29.0,29.96,East,89,0.0,2.0,71,0.00,,,0.00,,2013-04-05 08:22:00,
2013-04-05 03:32:00,38.0,29.0,29.95,East,89,0.0,2.0,71,0.00,,,0.00,,2013-04-05 08:32:00,
2013-04-05 03:43:00,38.0,29.0,29.95,East,89,0.0,2.0,71,0.00,,,0.00,,2013-04-05 08:43:00,
2013-04-05 03:52:00,38.0,29.0,29.95,ENE,57,1.0,4.0,71,0.00,,,0.00,,2013-04-05 08:52:00,
2013-04-05 04:02:00,38.0,30.0,29.94,ENE,72,2.0,3.0,72,0.00,,,0.00,,2013-04-05 09:02:00,
2013-04-05 04:12:00,38.0,30.0,29.94,ENE,72,2.0,3.0,72,0.00,,,0.00,,2013-04-05 09:12:00,
2013-04-05 04:22:00,38.0,30.0,29.93,ENE,64,2.0,5.0,72,0.00,,,0.00,,2013-04-05 09:22:00,
2013-04-05 04:33:00,38.0,30.0,29.93,East,80,2.0,7.0,72,0.00,,,0.00,,2013-04-05 09:33:00,
2013-04-05 04:42:00,38.0,30.0,29.93,East,80,2.0,7.0,72,0.00,,,0.00,,2013-04-05 09:42:00,
2013-04-05 04:52:00,39.0,31.0,29.92,NE,49,2.0,5.0,72,0.00,,,0.00,,2013-04-05 09:52:00,
2013-04-05 05:03:00,38.0,30.0,29.92,ENE,57,0.0,4.0,73,0.00,,,0.00,,2013-04-05 10:03:00,
2013-04-05 05:13:00,38.0,30.0,29.92,ENE,57,0.0,4.0,73,0.00,,,0.00,,2013-04-05 10:13:00,
2013-04-05 05:23:00,38.0,30.0,29.91,ENE,77,1.0,5.0,74,0.00,,,0.00,,2013-04-05 10:23:00,
2013-04-05 05:32:00,38.0,30.0,29.91,ENE,65,2.0,5.0,74,0.00,,,0.00,,2013-04-05 10:32:00,
2013-04-05 05:42:00,38.0,30.0,29.91,ENE,65,2.0,5.0,74,0.00,,,0.00,,2013-04-05 10:42:00,
2013-04-05 05:52:00,37.0,30.0,29.91,NE,49,2.0,4.0,75,0.00,,,0.00,,2013-04-05 10:52:00,
2013-04-05 06:02:00,37.0,30.0,29.90,East,97,2.0,6.0,76,0.00,,,0.00,,2013-04-05 11:02:00,
2013-04-05 06:12:00,37.0,30.0,29.90,East,97,2.0,6.0,76,0.00,,,0.00,,2013-04-05 11:12:00,
2013-04-05 06:22:00,36.0,29.0,29.90,ENE,61,3.0,7.0,76,0.00,,,0.00,,2013-04-05 11:22:00,
2013-04-05 06:33:00,36.0,29.0,29.90,NNE,26,2.0,5.0,77,0.00,,,0.00,,2013-04-05 11:33:00,
2013-04-05 06:42:00,36.0,29.0,29.90,NNE,26,2.0,5.0,77,0.00,,,0.00,,2013-04-05 11:42:00,
2013-04-05 06:52:00,35.0,29.0,29.90,ENE,62,1.0,6.0,78,0.00,,,0.00,,2013-04-05 11:52:00,
2013-04-05 07:02:00,35.0,29.0,29.89,ENE,61,1.0,5.0,79,0.00,,,0.00,,2013-04-05 12:02:00,
2013-04-05 07:12:00,35.0,29.0,29.89,ENE,61,1.0,5.0,79,0.00,,,0.00,,2013-04-05 12:12:00,
2013-04-05 07:22:00,35.0,29.0,29.89,ENE,73,1.0,5.0,80,0.00,,,0.00,,2013-04-05 12:22:00,
2013-04-05 07:32:00,35.0,30.0,29.88,ENE,57,3.0,8.0,81,0.00,,,0.00,,2013-04-05 12:32:00,
2013-04-05 07:42:00,35.0,30.0,29.88,ENE,57,3.0,8.0,81,0.00,,,0.00,,2013-04-05 12:42:00,
2013-04-05 07:52:00,35.0,30.0,29.89,NE,40,2.0,8.0,81,0.00,,,0.00,,2013-04-05 12:52:00,
2013-04-05 08:02:00,35.0,30.0,29.88,ENE,73,1.0,6.0,81,0.00,,,0.00,,2013-04-05 13:02:00,
2013-04-05 08:12:00,35.0,30.0,29.88,ENE,73,1.0,6.0,81,0.00,,,0.00,,2013-04-05 13:12:00,
2013-04-05 08:22:00,35.0,30.0,29.88,NE,36,3.0,7.0,82,0.00,,,0.00,,2013-04-05 13:22:00,
2013-04-05 08:32:00,36.0,31.0,29.87,East,82,3.0,9.0,81,0.00,,,0.00,,2013-04-05 13:32:00,
2013-04-05 08:42:00,36.0,31.0,29.87,East,82,3.0,9.0,81,0.00,,,0.00,,2013-04-05 13:42:00,
2013-04-05 08:52:00,37.0,31.0,29.88,ENE,66,3.0,9.0,80,0.00,,,0.00,,2013-04-05 13:52:00,
2013-04-05 09:03:00,37.0,31.0,29.87,ENE,69,4.0,7.0,78,0.00,,,0.00,,2013-04-05 14:03:00,
2013-04-05 09:12:00,37.0,31.0,29.87,ENE,69,4.0,7.0,78,0.00,,,0.00,,2013-04-05 14:12:00,
2013-04-05 09:22:00,39.0,32.0,29.86,NE,55,3.0,10.0,77,0.00,,,0.00,,2013-04-05 14:22:00,
2013-04-05 09:36:00,41.0,33.0,29.85,NE,46,3.0,8.0,74,0.00,,,0.00,,2013-04-05 14:36:00,
2013-04-05 09:43:00,41.0,33.0,29.85,NE,46,3.0,8.0,74,0.00,,,0.00,,2013-04-05 14:43:00,
2013-04-05 09:52:00,42.0,34.0,29.85,ENE,58,3.0,10.0,72,0.00,,,0.00,,2013-04-05 14:52:00,
2013-04-05 10:02:00,45.0,35.0,29.84,NE,51,5.0,11.0,68,0.00,,,0.00,,2013-04-05 15:02:00,
2013-04-05 10:12:00,45.0,35.0,29.84,NE,51,5.0,11.0,68,0.00,,,0.00,,2013-04-05 15:12:00,
2013-04-05 10:23:00,48.0,36.0,29.83,WSW,243,2.0,8.0,63,0.00,,,0.00,,2013-04-05 15:23:00,
2013-04-05 10:33:00,51.0,36.0,29.82,NNE,17,3.0,8.0,56,0.00,,,0.00,,2013-04-05 15:33:00,
2013-04-05 10:42:00,51.0,36.0,29.82,NNE,17,3.0,8.0,56,0.00,,,0.00,,2013-04-05 15:42:00,
2013-04-05 10:53:00,53.0,36.0,29.81,ESE,123,1.0,7.0,53,0.00,,,0.00,,2013-04-05 15:53:00,
2013-04-05 11:02:00,56.0,37.0,29.80,East,93,2.0,9.0,48,0.00,,,0.00,,2013-04-05 16:02:00,
2013-04-05 11:13:00,56.0,37.0,29.80,East,93,2.0,9.0,48,0.00,,,0.00,,2013-04-05 16:13:00,
2013-04-05 11:23:00,58.0,36.0,29.80,SSE,165,1.0,6.0,44,0.00,,,0.00,,2013-04-05 16:23:00,
2013-04-05 11:33:00,60.0,34.0,29.79,SSE,168,3.0,7.0,38,0.00,,,0.00,,2013-04-05 16:33:00,
2013-04-05 11:42:00,60.0,34.0,29.79,SSE,168,3.0,7.0,38,0.00,,,0.00,,2013-04-05 16:42:00,
2013-04-05 11:52:00,60.0,35.0,29.78,SE,143,2.0,7.0,39,0.00,,,0.00,,2013-04-05 16:52:00,
2013-04-05 12:03:00,61.0,35.0,29.77,ENE,59,3.0,12.0,38,0.00,,,0.00,,2013-04-05 17:03:00,
2013-04-05 12:13:00,61.0,35.0,29.77,ENE,59,3.0,12.0,38,0.00,,,0.00,,2013-04-05 17:13:00,
2013-04-05 12:23:00,61.0,34.0,29.76,ENE,63,5.0,10.0,36,0.00,,,0.00,,2013-04-05 17:23:00,
2013-04-05 12:32:00,62.0,35.0,29.75,SE,130,1.0,9.0,36,0.00,,,0.00,,2013-04-05 17:32:00,
2013-04-05 12:45:00,62.0,35.0,29.75,SE,130,1.0,9.0,36,0.00,,,0.00,,2013-04-05 17:45:00,
2013-04-05 12:52:00,64.0,34.0,29.74,NE,53,2.0,10.0,32,0.00,,,0.00,,2013-04-05 17:52:00,
2013-04-05 13:02:00,67.0,35.0,29.72,ESE,106,2.0,10.0,31,0.00,,,0.00,,2013-04-05 18:02:00,
2013-04-05 13:12:00,67.0,35.0,29.72,ESE,106,2.0,10.0,31,0.00,,,0.00,,2013-04-05 18:12:00,
2013-04-05 13:22:00,70.0,29.0,29.71,SSE,153,4.0,13.0,22,0.00,,,0.00,,2013-04-05 18:22:00,
2013-04-05 13:33:00,69.0,27.0,29.70,SSE,157,5.0,12.0,21,0.00,,,0.00,,2013-04-05 18:33:00,
2013-04-05 13:42:00,69.0,27.0,29.70,SSE,157,5.0,12.0,21,0.00,,,0.00,,2013-04-05 18:42:00,
2013-04-05 13:53:00,70.0,30.0,29.69,SSE,162,5.0,14.0,23,0.00,,,0.00,,2013-04-05 18:53:00,
2013-04-05 14:00:00,71.0,29.0,29.66,SE,136,4.0,14.0,21,0.00,,,0.00,,2013-04-05 19:00:00,
2013-04-05 14:02:00,70.0,29.0,29.67,SE,143,5.0,11.0,22,0.00,,,0.00,,2013-04-05 19:02:00,
2013-04-05 14:13:00,70.0,29.0,29.67,SE,143,5.0,11.0,22,0.00,,,0.00,,2013-04-05 19:13:00,
2013-04-05 14:23:00,71.0,29.0,29.66,SE,136,4.0,14.0,21,0.00,,,0.00,,2013-04-05 19:23:00,
2013-04-05 14:33:00,71.0,29.0,29.66,SE,136,4.0,14.0,21,0.00,,,0.00,,2013-04-05 19:33:00,
2013-04-05 14:42:00,71.0,29.0,29.66,SE,136,4.0,14.0,21,0.00,,,0.00,,2013-04-05 19:42:00,
2013-04-05 14:52:00,71.0,29.0,29.66,SE,136,4.0,14.0,21,0.00,,,0.00,,2013-04-05 19:52:00,
2013-04-05 15:22:00,71.0,31.0,29.63,SSE,162,4.0,10.0,23,0.00,,,0.00,,2013-04-05 20:22:00,
2013-04-05 15:33:00,71.0,31.0,29.63,SSE,162,4.0,10.0,23,0.00,,,0.00,,2013-04-05 20:33:00,
2013-04-05 15:42:00,71.0,31.0,29.63,SSE,162,4.0,10.0,23,0.00,,,0.00,,2013-04-05 20:42:00,
2013-04-05 15:53:00,71.0,32.0,29.60,SSW,207,5.0,11.0,24,0.00,,,0.00,,2013-04-05 20:53:00,
2013-04-05 16:02:00,73.0,33.0,29.59,SSE,148,3.0,10.0,23,0.00,,,0.00,,2013-04-05 21:02:00,
2013-04-05 16:13:00,73.0,33.0,29.59,SSE,148,3.0,10.0,23,0.00,,,0.00,,2013-04-05 21:13:00,
2013-04-05 16:23:00,75.0,35.0,29.57,SSE,165,4.0,11.0,23,0.00,,,0.00,,2013-04-05 21:23:00,
2013-04-05 16:33:00,75.0,32.0,29.56,SE,142,2.0,6.0,21,0.00,,,0.00,,2013-04-05 21:33:00,
2013-04-05 16:43:00,75.0,32.0,29.56,SE,142,2.0,6.0,21,0.00,,,0.00,,2013-04-05 21:43:00,
2013-04-05 16:54:00,76.0,31.0,29.55,SE,142,5.0,10.0,19,0.00,,,0.00,,2013-04-05 21:54:00,
2013-04-05 17:03:00,76.0,32.0,29.54,SSE,148,3.0,9.0,20,0.00,,,0.00,,2013-04-05 22:03:00,
2013-04-05 17:13:00,76.0,32.0,29.54,SSE,148,3.0,9.0,20,0.00,,,0.00,,2013-04-05 22:13:00,
2013-04-05 17:23:00,76.0,31.0,29.53,SSE,150,2.0,6.0,19,0.00,,,0.00,,2013-04-05 22:23:00,
2013-04-05 17:33:00,76.0,31.0,29.53,SSE,164,1.0,8.0,19,0.00,,,0.00,,2013-04-05 22:33:00,
2013-04-05 17:43:00,76.0,31.0,29.53,SSE,164,1.0,8.0,19,0.00,,,0.00,,2013-04-05 22:43:00,
2013-04-05 17:53:00,76.0,31.0,29.52,ESE,115,1.0,5.0,19,0.00,,,0.00,,2013-04-05 22:53:00,
2013-04-05 18:02:00,74.0,30.0,29.52,SSE,165,1.0,8.0,20,0.00,,,0.00,,2013-04-05 23:02:00,
2013-04-05 18:12:00,74.0,30.0,29.52,SSE,165,1.0,8.0,20,0.00,,,0.00,,2013-04-05 23:12:00,
2013-04-05 18:22:00,74.0,33.0,29.52,NNE,22,1.0,6.0,22,0.00,,,0.00,,2013-04-05 23:22:00,
2013-04-05 18:32:00,74.0,29.0,29.51,South,191,1.0,4.0,19,0.00,,,0.00,,2013-04-05 23:32:00,
2013-04-05 18:42:00,74.0,29.0,29.51,South,191,1.0,4.0,19,0.00,,,0.00,,2013-04-05 23:42:00,
2013-04-05 18:53:00,74.0,29.0,29.51,SSE,154,1.0,5.0,19,0.00,,,0.00,,2013-04-05 23:53:00,
2013-04-05 19:02:00,74.0,33.0,29.51,SSE,147,2.0,6.0,22,0.00,,,0.00,,2013-04-06 00:02:00,
2013-04-05 19:13:00,74.0,33.0,29.51,SSE,147,2.0,6.0,22,0.00,,,0.00,,2013-04-06 00:13:00,
2013-04-05 19:23:00,73.0,32.0,29.51,South,172,2.0,11.0,22,0.00,,,0.00,,2013-04-06 00:23:00,
2013-04-05 19:32:00,73.0,32.0,29.51,SE,139,1.0,7.0,22,0.00,,,0.00,,2013-04-06 00:32:00,
2013-04-05 19:42:00,73.0,32.0,29.51,SE,139,1.0,7.0,22,0.00,,,0.00,,2013-04-06 00:42:00,
2013-04-05 19:52:00,72.0,32.0,29.51,SSE,155,2.0,7.0,23,0.00,,,0.00,,2013-04-06 00:52:00,
2013-04-05 20:02:00,71.0,31.0,29.51,SSE,155,1.0,5.0,23,0.00,,,0.00,,2013-04-06 01:02:00,
2013-04-05 20:12:00,71.0,31.0,29.51,SSE,155,1.0,5.0,23,0.00,,,0.00,,2013-04-06 01:12:00,
2013-04-05 20:22:00,70.0,33.0,29.51,SSE,159,0.0,4.0,25,0.00,,,0.00,,2013-04-06 01:22:00,
2013-04-05 20:32:00,69.0,33.0,29.50,WSW,246,0.0,1.0,26,0.00,,,0.00,,2013-04-06 01:32:00,
2013-04-05 20:43:00,69.0,33.0,29.50,WSW,246,0.0,1.0,26,0.00,,,0.00,,2013-04-06 01:43:00,
2013-04-05 20:53:00,67.0,32.0,29.50,West,262,0.0,2.0,27,0.00,,,0.00,,2013-04-06 01:53:00,
2013-04-05 21:02:00,65.0,33.0,29.50,West,262,0.0,2.0,30,0.00,,,0.00,,2013-04-06 02:02:00,
2013-04-05 21:12:00,65.0,33.0,29.50,West,262,0.0,2.0,30,0.00,,,0.00,,2013-04-06 02:12:00,
2013-04-05 21:22:00,64.0,32.0,29.49,NE,47,2.0,4.0,30,0.00,,,0.00,,2013-04-06 02:22:00,
2013-04-05 21:32:00,64.0,34.0,29.49,NE,49,2.0,5.0,32,0.00,,,0.00,,2013-04-06 02:32:00,
2013-04-05 21:42:00,64.0,34.0,29.49,NE,49,2.0,5.0,32,0.00,,,0.00,,2013-04-06 02:42:00,
2013-04-05 21:52:00,64.0,37.0,29.49,North,10,1.0,6.0,36,0.00,,,0.00,,2013-04-06 02:52:00,
2013-04-05 22:02:00,63.0,37.0,29.50,NE,39,1.0,9.0,38,0.00,,,0.00,,2013-04-06 03:02:00,
2013-04-05 22:12:00,63.0,37.0,29.50,NE,39,1.0,9.0,38,0.00,,,0.00,,2013-04-06 03:12:00,
2013-04-05 22:22:00,62.0,37.0,29.50,WSW,254,2.0,7.0,39,0.00,,,0.00,,2013-04-06 03:22:00,
2013-04-05 22:33:00,62.0,38.0,29.50,NNE,30,2.0,10.0,41,0.00,,,0.00,,2013-04-06 03:33:00,
2013-04-05 22:43:00,62.0,38.0,29.50,NNE,30,2.0,10.0,41,0.00,,,0.00,,2013-04-06 03:43:00,
2013-04-05 22:54:00,61.0,38.0,29.50,NNE,18,3.0,8.0,43,0.00,,,0.00,,2013-04-06 03:54:00,
2013-04-05 23:13:00,60.0,39.0,29.50,NNE,28,0.0,6.0,45,0.00,,,0.00,,2013-04-06 04:13:00,
2013-04-05 23:23:00,59.0,38.0,29.50,NE,51,2.0,6.0,46,0.00,,,0.00,,2013-04-06 04:23:00,
2013-04-05 23:32:00,58.0,38.0,29.49,NNE,25,1.0,5.0,47,0.00,,,0.00,,2013-04-06 04:32:00,
2013-04-05 23:42:00,58.0,38.0,29.49,NNE,25,1.0,5.0,47,0.00,,,0.00,,2013-04-06 04:42:00,
2013-04-05 23:53:00,57.0,38.0,29.50,NNE,25,0.0,3.0,49,0.00,,,0.00,,2013-04-06 04:53:00,